createdAt,value
2017-10-18T00:02:01.173Z,37.20
2017-10-18T00:04:28.421Z,37.27
2017-10-18T00:06:55.710Z,37.28
2017-10-18T00:09:22.958Z,37.23
2017-10-18T00:11:50.292Z,37.27
2017-10-18T00:14:19.721Z,37.28
2017-10-18T00:16:47.028Z,37.35
2017-10-18T00:19:15.345Z,37.34
2017-10-18T00:21:42.727Z,37.35
2017-10-18T00:24:11.078Z,37.43
2017-10-18T00:26:38.328Z,37.46
2017-10-18T00:29:06.496Z,37.45
2017-10-18T00:31:34.056Z,37.46
2017-10-18T00:36:33.271Z,37.51
2017-10-18T00:39:02.064Z,37.54
2017-10-18T00:41:30.993Z,37.55
2017-10-18T00:43:59.081Z,37.59
2017-10-18T00:46:26.450Z,37.53
2017-10-18T00:48:53.811Z,37.56
2017-10-18T00:51:21.085Z,37.62
2017-10-18T00:53:49.296Z,37.56
2017-10-18T00:56:17.691Z,37.60
2017-10-18T00:58:46.194Z,37.65
2017-10-18T01:01:13.618Z,37.65
2017-10-18T01:03:40.940Z,37.36
2017-10-18T01:06:08.316Z,37.03
2017-10-18T01:08:35.719Z,36.92
2017-10-18T01:11:02.999Z,36.96
2017-10-18T01:13:30.401Z,36.99
2017-10-18T01:15:57.849Z,37.07
2017-10-18T01:18:25.818Z,37.02
2017-10-18T01:20:53.985Z,37.15
2017-10-18T01:23:21.254Z,37.33
2017-10-18T01:25:48.452Z,37.17
2017-10-18T01:28:15.717Z,37.16
2017-10-18T01:30:43.064Z,37.36
2017-10-18T01:33:10.601Z,37.26
2017-10-18T01:35:38.979Z,37.43
2017-10-18T01:38:07.071Z,37.46
2017-10-18T01:40:34.530Z,37.43
2017-10-18T01:43:02.208Z,37.70
2017-10-18T01:45:30.133Z,37.51
2017-10-18T01:47:57.377Z,37.53
2017-10-18T01:50:24.657Z,37.71
2017-10-18T01:52:51.884Z,37.83
2017-10-18T01:55:20.155Z,37.77
2017-10-18T01:57:47.395Z,37.75
2017-10-18T02:00:14.714Z,37.61
2017-10-18T02:02:41.936Z,37.54
2017-10-18T02:05:10.045Z,37.70
2017-10-18T02:07:37.343Z,37.57
2017-10-18T02:10:04.686Z,37.66
2017-10-18T02:12:32.054Z,37.82
2017-10-18T02:14:59.325Z,37.71
2017-10-18T02:17:26.690Z,37.86
2017-10-18T02:19:54.230Z,37.79
2017-10-18T02:22:21.759Z,37.69
2017-10-18T02:24:49.786Z,37.59
2017-10-18T02:27:17.145Z,37.72
2017-10-18T02:29:44.492Z,37.56
2017-10-18T02:32:11.830Z,37.72
2017-10-18T02:34:39.878Z,37.57
2017-10-18T02:37:08.592Z,37.33
2017-10-18T02:39:36.483Z,37.43
2017-10-18T02:42:03.795Z,37.41
2017-10-18T02:44:31.080Z,37.45
2017-10-18T02:46:58.417Z,37.40
2017-10-18T02:49:27.597Z,37.31
2017-10-18T02:51:54.890Z,37.29
2017-10-18T02:54:22.129Z,37.30
2017-10-18T02:56:49.572Z,37.30
2017-10-18T02:59:16.832Z,37.53
2017-10-18T03:01:44.123Z,37.30
2017-10-18T03:04:11.410Z,37.27
2017-10-18T03:06:38.829Z,37.16
2017-10-18T03:09:06.198Z,37.18
2017-10-18T03:11:33.480Z,37.06
2017-10-18T03:14:00.824Z,37.23
2017-10-18T03:16:29.569Z,37.20
2017-10-18T03:18:57.685Z,37.22
2017-10-18T03:21:24.952Z,37.11
2017-10-18T03:23:52.305Z,37.19
2017-10-18T03:26:19.585Z,37.12
2017-10-18T03:28:46.781Z,37.13
2017-10-18T03:31:14.123Z,37.10
2017-10-18T03:33:41.468Z,37.39
2017-10-18T03:36:08.724Z,37.30
2017-10-18T03:38:36.041Z,37.26
2017-10-18T03:41:03.267Z,37.20
2017-10-18T03:43:30.552Z,37.27
2017-10-18T03:45:57.965Z,37.17
2017-10-18T03:48:25.290Z,37.11
2017-10-18T03:50:52.618Z,37.24
2017-10-18T03:53:19.924Z,37.05
2017-10-18T03:55:47.158Z,37.05
2017-10-18T03:58:14.406Z,37.24
2017-10-18T04:00:43.308Z,37.27
2017-10-18T04:03:11.556Z,37.17
2017-10-18T04:05:38.884Z,37.24
2017-10-18T04:08:08.933Z,37.27
2017-10-18T04:10:39.962Z,37.36
2017-10-18T04:18:27.701Z,37.35
2017-10-18T04:20:54.928Z,37.27
2017-10-18T04:23:22.315Z,37.16
2017-10-18T04:25:49.690Z,37.00
2017-10-18T04:28:17.065Z,37.02
2017-10-18T04:30:44.398Z,36.92
2017-10-18T04:33:11.749Z,37.08
2017-10-18T04:35:39.114Z,36.91
2017-10-18T04:38:06.353Z,36.84
2017-10-18T04:40:33.635Z,36.82
2017-10-18T04:43:01.708Z,36.77
2017-10-18T04:45:29.009Z,36.67
2017-10-18T04:47:56.320Z,36.73
2017-10-18T04:50:23.651Z,36.69
2017-10-18T04:52:52.223Z,36.61
2017-10-18T04:55:19.584Z,36.67
2017-10-18T04:57:47.783Z,36.60
2017-10-18T05:00:15.071Z,36.59
2017-10-18T05:02:42.678Z,36.55
2017-10-18T05:05:10.047Z,36.40
2017-10-18T05:07:37.432Z,36.47
2017-10-18T05:10:05.405Z,36.30
2017-10-18T05:12:35.172Z,36.28
2017-10-18T05:15:06.297Z,36.25
2017-10-18T05:17:37.309Z,36.27
2017-10-18T05:20:04.738Z,36.11
2017-10-18T05:22:32.081Z,36.20
2017-10-18T05:24:59.503Z,36.09
2017-10-18T05:27:29.331Z,36.17
2017-10-18T05:32:32.241Z,36.00
2017-10-18T05:34:59.539Z,35.96
2017-10-18T05:37:32.049Z,35.89
2017-10-18T07:17:20.286Z,36.54
2017-10-18T07:19:47.516Z,36.34
2017-10-18T07:22:14.757Z,36.52
2017-10-18T07:24:42.021Z,36.58
2017-10-18T07:27:09.260Z,36.52
2017-10-18T07:29:36.823Z,36.52
2017-10-18T07:32:04.120Z,36.47
2017-10-18T07:34:31.399Z,36.29
2017-10-18T07:36:58.678Z,36.45
2017-10-18T07:39:25.978Z,36.49
2017-10-18T09:31:03.931Z,36.23
2017-10-18T10:15:54.737Z,35.68
2017-10-18T10:20:57.826Z,35.77
2017-10-18T10:58:22.252Z,36.03
2017-10-18T13:32:36.703Z,34.32
2017-10-18T13:35:08.764Z,34.74
2017-10-18T13:37:37.503Z,34.74
2017-10-18T14:17:49.079Z,34.42
2017-10-18T15:23:08.206Z,35.04
2017-10-18T15:54:00.627Z,34.98
2017-10-18T16:28:41.575Z,34.75
2017-10-18T16:31:16.872Z,34.83
2017-10-18T19:27:55.120Z,35.06
2017-10-18T19:30:25.103Z,35.04
2017-10-18T19:47:00.983Z,35.34
2017-10-18T19:52:50.489Z,35.43
2017-10-18T19:55:38.734Z,35.51
2017-10-18T19:58:08.895Z,35.56
2017-10-18T20:00:40.458Z,35.62
2017-10-18T20:05:42.623Z,35.69
2017-10-18T20:08:13.684Z,35.77
2017-10-18T20:10:44.814Z,35.87
2017-10-18T20:13:14.252Z,35.82
2017-10-18T20:15:48.834Z,35.92
2017-10-18T20:21:27.436Z,36.11
2017-10-18T20:26:50.281Z,36.22
2017-10-18T20:32:16.086Z,36.36
2017-10-18T20:49:06.015Z,36.62
2017-10-18T21:00:04.088Z,36.88
2017-10-18T21:02:33.082Z,36.95
2017-10-18T21:05:30.288Z,37.01
2017-10-18T21:16:07.112Z,37.27
2017-10-18T21:21:35.391Z,37.33
2017-10-18T21:24:06.253Z,37.42
2017-10-18T21:29:22.788Z,37.50
2017-10-18T21:31:54.556Z,37.60
2017-10-18T21:34:36.099Z,37.59
2017-10-18T21:37:08.861Z,37.65
2017-10-18T21:39:36.104Z,37.70
2017-10-18T21:42:18.657Z,37.71
2017-10-18T21:44:49.003Z,37.75
2017-10-18T21:52:34.431Z,37.82
2017-10-18T21:55:03.947Z,37.88
2017-10-18T21:57:31.491Z,37.89
2017-10-18T22:00:04.019Z,37.91
2017-10-18T22:02:32.471Z,37.97
2017-10-18T22:05:03.151Z,37.98
2017-10-18T22:10:11.175Z,38.04
2017-10-18T22:18:16.724Z,38.14
2017-10-18T22:26:21.957Z,38.29
2017-10-18T22:31:35.631Z,38.32
2017-10-18T22:34:06.110Z,38.39
2017-10-18T22:36:36.886Z,38.41
2017-10-18T22:41:58.362Z,38.43
2017-10-18T22:44:35.904Z,38.48
2017-10-18T23:02:37.656Z,38.63
2017-10-18T23:08:19.804Z,38.65
2017-10-18T23:19:47.653Z,38.71
2017-10-18T23:22:32.871Z,38.75
2017-10-18T23:30:40.939Z,38.75
2017-10-18T23:38:48.084Z,38.76
2017-10-18T23:41:23.788Z,38.78
2017-10-18T23:43:55.616Z,38.83
